sensor_id;sensor_type;location;lat;lon;timestamp;P1;durP1;ratioP1;P2;durP2;ratioP2
60867;SDS011;46702;48.370;10.794;2022-07-06T00:00:04;1.85;;;1.75;;
60867;SDS011;46702;48.370;10.794;2022-07-06T00:02:31;2.40;;;2.20;;
60867;SDS011;46702;48.370;10.794;2022-07-06T00:04:57;2.30;;;2.10;;
60867;SDS011;46702;48.370;10.794;2022-07-06T00:07:22;2.25;;;2.13;;
60867;SDS011;46702;48.370;10.794;2022-07-06T00:09:48;2.10;;;1.83;;
60867;SDS011;46702;48.370;10.794;2022-07-06T00:12:14;2.30;;;2.10;;
60867;SDS011;46702;48.370;10.794;2022-07-06T00:14:40;3.55;;;1.90;;
60867;SDS011;46702;48.370;10.794;2022-07-06T00:17:06;3.20;;;2.17;;
60867;SDS011;46702;48.370;10.794;2022-07-06T00:19:32;1.88;;;1.77;;
60867;SDS011;46702;48.370;10.794;2022-07-06T00:21:57;2.35;;;2.15;;
60867;SDS011;46702;48.370;10.794;2022-07-06T00:24:23;2.20;;;2.10;;
60867;SDS011;46702;48.370;10.794;2022-07-06T00:26:49;2.42;;;2.22;;
60867;SDS011;46702;48.370;10.794;2022-07-06T00:29:15;2.40;;;2.20;;
60867;SDS011;46702;48.370;10.794;2022-07-06T00:31:40;2.83;;;2.25;;
60867;SDS011;46702;48.370;10.794;2022-07-06T00:34:06;2.53;;;2.33;;
60867;SDS011;46702;48.370;10.794;2022-07-06T00:36:31;3.35;;;2.50;;
60867;SDS011;46702;48.370;10.794;2022-07-06T00:38:57;3.85;;;2.20;;
60867;SDS011;46702;48.370;10.794;2022-07-06T00:41:22;2.65;;;2.45;;
60867;SDS011;46702;48.370;10.794;2022-07-06T00:43:49;4.03;;;2.55;;
60867;SDS011;46702;48.370;10.794;2022-07-06T00:46:21;2.47;;;2.28;;
60867;SDS011;46702;48.370;10.794;2022-07-06T00:48:50;2.20;;;2.10;;
60867;SDS011;46702;48.370;10.794;2022-07-06T00:51:15;2.30;;;2.15;;
60867;SDS011;46702;48.370;10.794;2022-07-06T00:53:42;2.40;;;2.20;;
60867;SDS011;46702;48.370;10.794;2022-07-06T00:56:08;2.60;;;2.40;;
60867;SDS011;46702;48.370;10.794;2022-07-06T00:58:35;3.00;;;2.70;;
60867;SDS011;46702;48.370;10.794;2022-07-06T01:01:01;2.72;;;2.53;;
60867;SDS011;46702;48.370;10.794;2022-07-06T01:03:26;2.22;;;2.10;;
60867;SDS011;46702;48.370;10.794;2022-07-06T01:05:52;3.10;;;2.53;;
60867;SDS011;46702;48.370;10.794;2022-07-06T01:08:18;2.95;;;2.70;;
60867;SDS011;46702;48.370;10.794;2022-07-06T01:10:44;2.90;;;2.70;;
60867;SDS011;46702;48.370;10.794;2022-07-06T01:13:09;2.67;;;2.47;;
60867;SDS011;46702;48.370;10.794;2022-07-06T01:15:35;3.03;;;2.60;;
60867;SDS011;46702;48.370;10.794;2022-07-06T01:18:01;3.58;;;2.58;;
60867;SDS011;46702;48.370;10.794;2022-07-06T01:20:28;2.45;;;2.35;;
60867;SDS011;46702;48.370;10.794;2022-07-06T01:22:54;3.83;;;3.20;;
60867;SDS011;46702;48.370;10.794;2022-07-06T01:25:21;3.63;;;2.63;;
60867;SDS011;46702;48.370;10.794;2022-07-06T01:27:47;2.50;;;2.30;;
60867;SDS011;46702;48.370;10.794;2022-07-06T01:30:14;2.28;;;2.17;;
60867;SDS011;46702;48.370;10.794;2022-07-06T01:32:42;2.65;;;2.45;;
60867;SDS011;46702;48.370;10.794;2022-07-06T01:35:09;2.38;;;2.22;;
60867;SDS011;46702;48.370;10.794;2022-07-06T01:37:36;2.90;;;2.63;;
60867;SDS011;46702;48.370;10.794;2022-07-06T01:40:03;2.45;;;2.25;;
60867;SDS011;46702;48.370;10.794;2022-07-06T01:42:30;2.50;;;2.30;;
60867;SDS011;46702;48.370;10.794;2022-07-06T01:44:56;2.55;;;2.33;;
60867;SDS011;46702;48.370;10.794;2022-07-06T01:47:22;3.00;;;2.67;;
60867;SDS011;46702;48.370;10.794;2022-07-06T01:49:48;2.67;;;2.47;;
60867;SDS011;46702;48.370;10.794;2022-07-06T01:52:14;2.78;;;2.50;;
60867;SDS011;46702;48.370;10.794;2022-07-06T01:54:40;3.20;;;2.20;;
60867;SDS011;46702;48.370;10.794;2022-07-06T01:57:05;3.97;;;2.70;;
60867;SDS011;46702;48.370;10.794;2022-07-06T01:59:31;2.70;;;2.50;;
60867;SDS011;46702;48.370;10.794;2022-07-06T02:01:57;3.88;;;2.50;;
60867;SDS011;46702;48.370;10.794;2022-07-06T02:04:22;2.47;;;2.30;;
60867;SDS011;46702;48.370;10.794;2022-07-06T02:06:48;2.97;;;2.67;;
60867;SDS011;46702;48.370;10.794;2022-07-06T02:09:14;4.50;;;2.72;;
60867;SDS011;46702;48.370;10.794;2022-07-06T02:11:40;2.83;;;2.45;;
60867;SDS011;46702;48.370;10.794;2022-07-06T02:14:06;2.70;;;2.50;;
60867;SDS011;46702;48.370;10.794;2022-07-06T02:16:32;3.03;;;2.65;;
60867;SDS011;46702;48.370;10.794;2022-07-06T02:18:57;2.22;;;2.10;;
60867;SDS011;46702;48.370;10.794;2022-07-06T02:21:23;2.65;;;2.45;;
60867;SDS011;46702;48.370;10.794;2022-07-06T02:23:49;2.95;;;2.75;;
60867;SDS011;46702;48.370;10.794;2022-07-06T02:26:14;2.60;;;2.40;;
60867;SDS011;46702;48.370;10.794;2022-07-06T02:28:40;2.95;;;2.72;;
60867;SDS011;46702;48.370;10.794;2022-07-06T02:31:05;2.80;;;2.60;;
60867;SDS011;46702;48.370;10.794;2022-07-06T02:33:31;3.22;;;2.80;;
60867;SDS011;46702;48.370;10.794;2022-07-06T02:35:57;3.03;;;2.83;;
60867;SDS011;46702;48.370;10.794;2022-07-06T02:38:22;5.55;;;2.95;;
60867;SDS011;46702;48.370;10.794;2022-07-06T02:40:48;3.42;;;2.45;;
60867;SDS011;46702;48.370;10.794;2022-07-06T02:43:13;3.00;;;2.80;;
60867;SDS011;46702;48.370;10.794;2022-07-06T02:45:39;2.97;;;2.70;;
60867;SDS011;46702;48.370;10.794;2022-07-06T02:48:05;2.90;;;2.70;;
60867;SDS011;46702;48.370;10.794;2022-07-06T02:50:31;5.15;;;2.80;;
60867;SDS011;46702;48.370;10.794;2022-07-06T02:52:56;2.88;;;2.67;;
60867;SDS011;46702;48.370;10.794;2022-07-06T02:55:23;4.10;;;2.80;;
60867;SDS011;46702;48.370;10.794;2022-07-06T02:57:49;2.80;;;2.60;;
60867;SDS011;46702;48.370;10.794;2022-07-06T03:00:15;3.13;;;2.90;;
60867;SDS011;46702;48.370;10.794;2022-07-06T03:02:41;2.80;;;2.60;;
60867;SDS011;46702;48.370;10.794;2022-07-06T03:05:07;3.05;;;2.85;;
60867;SDS011;46702;48.370;10.794;2022-07-06T03:07:32;4.38;;;3.03;;
60867;SDS011;46702;48.370;10.794;2022-07-06T03:09:58;2.78;;;2.55;;
60867;SDS011;46702;48.370;10.794;2022-07-06T03:12:24;2.83;;;2.63;;
60867;SDS011;46702;48.370;10.794;2022-07-06T03:14:49;2.67;;;2.47;;
60867;SDS011;46702;48.370;10.794;2022-07-06T03:17:15;3.17;;;2.97;;
60867;SDS011;46702;48.370;10.794;2022-07-06T03:19:40;3.72;;;2.70;;
60867;SDS011;46702;48.370;10.794;2022-07-06T03:22:06;3.15;;;2.83;;
60867;SDS011;46702;48.370;10.794;2022-07-06T03:24:31;2.90;;;2.70;;
60867;SDS011;46702;48.370;10.794;2022-07-06T03:26:57;5.05;;;3.13;;
60867;SDS011;46702;48.370;10.794;2022-07-06T03:29:23;4.65;;;3.17;;
60867;SDS011;46702;48.370;10.794;2022-07-06T03:31:48;2.85;;;2.65;;
60867;SDS011;46702;48.370;10.794;2022-07-06T03:34:14;3.40;;;3.10;;
60867;SDS011;46702;48.370;10.794;2022-07-06T03:36:40;5.07;;;3.03;;
60867;SDS011;46702;48.370;10.794;2022-07-06T03:39:05;3.70;;;3.40;;
60867;SDS011;46702;48.370;10.794;2022-07-06T03:41:31;5.25;;;3.22;;
60867;SDS011;46702;48.370;10.794;2022-07-06T03:43:57;4.90;;;3.70;;
60867;SDS011;46702;48.370;10.794;2022-07-06T03:46:23;3.58;;;3.25;;
60867;SDS011;46702;48.370;10.794;2022-07-06T03:48:49;4.82;;;3.60;;
60867;SDS011;46702;48.370;10.794;2022-07-06T03:51:14;5.13;;;3.50;;
60867;SDS011;46702;48.370;10.794;2022-07-06T03:53:40;5.88;;;3.85;;
60867;SDS011;46702;48.370;10.794;2022-07-06T03:56:06;3.53;;;3.28;;
60867;SDS011;46702;48.370;10.794;2022-07-06T03:58:50;4.50;;;3.38;;
60867;SDS011;46702;48.370;10.794;2022-07-06T04:01:16;4.10;;;3.70;;
60867;SDS011;46702;48.370;10.794;2022-07-06T04:03:41;6.53;;;3.47;;
60867;SDS011;46702;48.370;10.794;2022-07-06T04:06:07;4.60;;;3.25;;
60867;SDS011;46702;48.370;10.794;2022-07-06T04:08:32;3.65;;;3.30;;
60867;SDS011;46702;48.370;10.794;2022-07-06T04:10:58;3.78;;;3.47;;
60867;SDS011;46702;48.370;10.794;2022-07-06T04:13:24;3.95;;;3.55;;
60867;SDS011;46702;48.370;10.794;2022-07-06T04:15:50;4.05;;;3.40;;
60867;SDS011;46702;48.370;10.794;2022-07-06T04:18:16;3.80;;;3.42;;
60867;SDS011;46702;48.370;10.794;2022-07-06T04:20:42;4.07;;;3.70;;
60867;SDS011;46702;48.370;10.794;2022-07-06T04:23:07;4.03;;;3.40;;
60867;SDS011;46702;48.370;10.794;2022-07-06T04:25:33;3.65;;;3.35;;
60867;SDS011;46702;48.370;10.794;2022-07-06T04:27:59;5.13;;;3.40;;
60867;SDS011;46702;48.370;10.794;2022-07-06T04:30:25;3.72;;;3.38;;
60867;SDS011;46702;48.370;10.794;2022-07-06T04:32:51;3.75;;;3.42;;
60867;SDS011;46702;48.370;10.794;2022-07-06T04:35:17;4.03;;;3.63;;
60867;SDS011;46702;48.370;10.794;2022-07-06T04:37:42;3.63;;;3.33;;
60867;SDS011;46702;48.370;10.794;2022-07-06T04:40:10;7.32;;;3.60;;
60867;SDS011;46702;48.370;10.794;2022-07-06T04:42:37;4.65;;;3.67;;
60867;SDS011;46702;48.370;10.794;2022-07-06T04:45:03;4.03;;;3.67;;
60867;SDS011;46702;48.370;10.794;2022-07-06T04:47:29;3.40;;;3.10;;
60867;SDS011;46702;48.370;10.794;2022-07-06T04:49:55;3.72;;;3.42;;
60867;SDS011;46702;48.370;10.794;2022-07-06T04:52:20;7.35;;;3.55;;
60867;SDS011;46702;48.370;10.794;2022-07-06T04:54:46;3.80;;;3.15;;
60867;SDS011;46702;48.370;10.794;2022-07-06T04:57:12;3.65;;;3.17;;
60867;SDS011;46702;48.370;10.794;2022-07-06T04:59:37;3.30;;;3.05;;
60867;SDS011;46702;48.370;10.794;2022-07-06T05:02:03;3.55;;;3.00;;
60867;SDS011;46702;48.370;10.794;2022-07-06T05:04:29;3.28;;;3.08;;
60867;SDS011;46702;48.370;10.794;2022-07-06T05:06:54;3.45;;;3.15;;
60867;SDS011;46702;48.370;10.794;2022-07-06T05:09:20;5.05;;;3.20;;
60867;SDS011;46702;48.370;10.794;2022-07-06T05:11:46;3.47;;;3.28;;
60867;SDS011;46702;48.370;10.794;2022-07-06T05:14:11;3.10;;;2.85;;
60867;SDS011;46702;48.370;10.794;2022-07-06T05:16:37;3.17;;;2.85;;
60867;SDS011;46702;48.370;10.794;2022-07-06T05:19:03;3.88;;;3.08;;
60867;SDS011;46702;48.370;10.794;2022-07-06T05:21:28;3.70;;;3.30;;
60867;SDS011;46702;48.370;10.794;2022-07-06T05:23:54;4.00;;;2.90;;
60867;SDS011;46702;48.370;10.794;2022-07-06T05:26:20;3.90;;;2.95;;
60867;SDS011;46702;48.370;10.794;2022-07-06T05:28:45;3.75;;;2.90;;
60867;SDS011;46702;48.370;10.794;2022-07-06T05:31:11;3.85;;;3.05;;
60867;SDS011;46702;48.370;10.794;2022-07-06T05:33:37;3.08;;;2.88;;
60867;SDS011;46702;48.370;10.794;2022-07-06T05:36:03;4.43;;;2.97;;
60867;SDS011;46702;48.370;10.794;2022-07-06T05:38:29;2.88;;;2.67;;
60867;SDS011;46702;48.370;10.794;2022-07-06T05:40:54;3.38;;;3.17;;
60867;SDS011;46702;48.370;10.794;2022-07-06T05:43:20;4.07;;;2.88;;
60867;SDS011;46702;48.370;10.794;2022-07-06T05:45:46;9.35;;;2.80;;
60867;SDS011;46702;48.370;10.794;2022-07-06T05:48:12;3.10;;;2.80;;
60867;SDS011;46702;48.370;10.794;2022-07-06T05:50:55;2.92;;;2.72;;
60867;SDS011;46702;48.370;10.794;2022-07-06T05:53:21;2.85;;;2.63;;
60867;SDS011;46702;48.370;10.794;2022-07-06T05:55:47;2.85;;;2.65;;
60867;SDS011;46702;48.370;10.794;2022-07-06T05:58:13;3.25;;;2.67;;
60867;SDS011;46702;48.370;10.794;2022-07-06T06:00:39;4.05;;;2.63;;
60867;SDS011;46702;48.370;10.794;2022-07-06T06:03:05;2.80;;;2.47;;
60867;SDS011;46702;48.370;10.794;2022-07-06T06:05:30;4.97;;;2.75;;
60867;SDS011;46702;48.370;10.794;2022-07-06T06:07:56;2.60;;;2.40;;
60867;SDS011;46702;48.370;10.794;2022-07-06T06:10:22;3.38;;;2.50;;
60867;SDS011;46702;48.370;10.794;2022-07-06T06:12:48;2.72;;;2.50;;
60867;SDS011;46702;48.370;10.794;2022-07-06T06:15:14;3.20;;;2.90;;
60867;SDS011;46702;48.370;10.794;2022-07-06T06:17:39;4.32;;;3.10;;
60867;SDS011;46702;48.370;10.794;2022-07-06T06:20:09;2.80;;;2.60;;
60867;SDS011;46702;48.370;10.794;2022-07-06T06:22:53;3.17;;;2.67;;
60867;SDS011;46702;48.370;10.794;2022-07-06T06:25:21;3.30;;;2.70;;
60867;SDS011;46702;48.370;10.794;2022-07-06T06:27:59;3.10;;;2.42;;
60867;SDS011;46702;48.370;10.794;2022-07-06T06:30:25;4.55;;;2.50;;
60867;SDS011;46702;48.370;10.794;2022-07-06T06:32:51;2.83;;;2.55;;
60867;SDS011;46702;48.370;10.794;2022-07-06T06:35:28;3.83;;;2.47;;
60867;SDS011;46702;48.370;10.794;2022-07-06T06:37:54;2.67;;;2.30;;
60867;SDS011;46702;48.370;10.794;2022-07-06T06:40:19;2.88;;;2.63;;
60867;SDS011;46702;48.370;10.794;2022-07-06T06:42:45;2.63;;;2.42;;
60867;SDS011;46702;48.370;10.794;2022-07-06T06:45:10;2.50;;;2.30;;
60867;SDS011;46702;48.370;10.794;2022-07-06T06:47:36;2.42;;;2.22;;
60867;SDS011;46702;48.370;10.794;2022-07-06T06:50:02;3.90;;;2.20;;
60867;SDS011;46702;48.370;10.794;2022-07-06T06:52:28;2.53;;;2.20;;
60867;SDS011;46702;48.370;10.794;2022-07-06T06:54:53;2.88;;;2.60;;
60867;SDS011;46702;48.370;10.794;2022-07-06T06:57:19;2.95;;;2.58;;
60867;SDS011;46702;48.370;10.794;2022-07-06T06:59:44;2.88;;;2.42;;
60867;SDS011;46702;48.370;10.794;2022-07-06T07:02:10;2.15;;;2.05;;
60867;SDS011;46702;48.370;10.794;2022-07-06T07:04:35;2.75;;;2.50;;
60867;SDS011;46702;48.370;10.794;2022-07-06T07:07:01;2.55;;;2.33;;
60867;SDS011;46702;48.370;10.794;2022-07-06T07:09:27;3.17;;;2.35;;
60867;SDS011;46702;48.370;10.794;2022-07-06T07:11:52;2.95;;;2.55;;
60867;SDS011;46702;48.370;10.794;2022-07-06T07:14:18;2.67;;;2.35;;
60867;SDS011;46702;48.370;10.794;2022-07-06T07:16:43;2.55;;;2.17;;
60867;SDS011;46702;48.370;10.794;2022-07-06T07:19:09;2.38;;;2.22;;
60867;SDS011;46702;48.370;10.794;2022-07-06T07:21:35;4.78;;;2.38;;
60867;SDS011;46702;48.370;10.794;2022-07-06T07:24:00;2.45;;;2.22;;
60867;SDS011;46702;48.370;10.794;2022-07-06T07:26:26;3.50;;;2.60;;
60867;SDS011;46702;48.370;10.794;2022-07-06T07:28:51;2.67;;;2.47;;
60867;SDS011;46702;48.370;10.794;2022-07-06T07:31:17;3.17;;;2.45;;
60867;SDS011;46702;48.370;10.794;2022-07-06T07:33:43;2.55;;;2.35;;
60867;SDS011;46702;48.370;10.794;2022-07-06T07:36:08;2.47;;;2.25;;
60867;SDS011;46702;48.370;10.794;2022-07-06T07:38:34;3.10;;;2.45;;
60867;SDS011;46702;48.370;10.794;2022-07-06T07:40:59;4.35;;;2.30;;
60867;SDS011;46702;48.370;10.794;2022-07-06T07:43:25;3.03;;;2.83;;
60867;SDS011;46702;48.370;10.794;2022-07-06T07:45:51;3.17;;;2.60;;
60867;SDS011;46702;48.370;10.794;2022-07-06T07:48:17;4.10;;;2.20;;
60867;SDS011;46702;48.370;10.794;2022-07-06T07:50:42;2.75;;;2.25;;
60867;SDS011;46702;48.370;10.794;2022-07-06T07:53:08;2.50;;;2.35;;
60867;SDS011;46702;48.370;10.794;2022-07-06T07:55:34;2.92;;;2.50;;
60867;SDS011;46702;48.370;10.794;2022-07-06T07:57:59;2.75;;;2.50;;
60867;SDS011;46702;48.370;10.794;2022-07-06T08:00:25;12.13;;;2.97;;
60867;SDS011;46702;48.370;10.794;2022-07-06T08:05:19;3.45;;;2.50;;
60867;SDS011;46702;48.370;10.794;2022-07-06T08:07:45;2.75;;;2.47;;
60867;SDS011;46702;48.370;10.794;2022-07-06T08:10:11;2.88;;;2.35;;
60867;SDS011;46702;48.370;10.794;2022-07-06T08:12:36;2.58;;;2.30;;
60867;SDS011;46702;48.370;10.794;2022-07-06T08:15:03;2.60;;;2.50;;
60867;SDS011;46702;48.370;10.794;2022-07-06T08:17:30;5.47;;;2.50;;
60867;SDS011;46702;48.370;10.794;2022-07-06T08:19:56;2.58;;;2.30;;
60867;SDS011;46702;48.370;10.794;2022-07-06T08:22:21;4.32;;;2.30;;
60867;SDS011;46702;48.370;10.794;2022-07-06T08:24:47;2.47;;;2.33;;
60867;SDS011;46702;48.370;10.794;2022-07-06T08:27:13;2.55;;;2.40;;
60867;SDS011;46702;48.370;10.794;2022-07-06T08:29:39;2.28;;;1.88;;
60867;SDS011;46702;48.370;10.794;2022-07-06T08:32:05;2.47;;;2.28;;
60867;SDS011;46702;48.370;10.794;2022-07-06T08:34:31;2.40;;;2.20;;
60867;SDS011;46702;48.370;10.794;2022-07-06T08:36:56;2.67;;;1.90;;
60867;SDS011;46702;48.370;10.794;2022-07-06T08:39:22;2.35;;;2.13;;
60867;SDS011;46702;48.370;10.794;2022-07-06T08:41:48;4.88;;;2.30;;
60867;SDS011;46702;48.370;10.794;2022-07-06T08:44:15;2.10;;;1.80;;
60867;SDS011;46702;48.370;10.794;2022-07-06T08:46:42;2.20;;;2.00;;
60867;SDS011;46702;48.370;10.794;2022-07-06T08:49:08;2.60;;;2.17;;
60867;SDS011;46702;48.370;10.794;2022-07-06T08:51:37;2.15;;;2.00;;
60867;SDS011;46702;48.370;10.794;2022-07-06T08:54:03;2.92;;;2.20;;
60867;SDS011;46702;48.370;10.794;2022-07-06T08:56:30;2.60;;;2.28;;
60867;SDS011;46702;48.370;10.794;2022-07-06T08:58:55;2.67;;;2.10;;
60867;SDS011;46702;48.370;10.794;2022-07-06T09:01:22;2.42;;;2.22;;
60867;SDS011;46702;48.370;10.794;2022-07-06T09:03:50;4.38;;;2.10;;
60867;SDS011;46702;48.370;10.794;2022-07-06T09:06:25;3.20;;;2.40;;
60867;SDS011;46702;48.370;10.794;2022-07-06T09:08:53;2.17;;;2.08;;
60867;SDS011;46702;48.370;10.794;2022-07-06T09:11:21;7.10;;;2.83;;
60867;SDS011;46702;48.370;10.794;2022-07-06T09:13:47;3.90;;;2.37;;
60867;SDS011;46702;48.370;10.794;2022-07-06T09:16:13;2.40;;;2.20;;
60867;SDS011;46702;48.370;10.794;2022-07-06T09:18:43;4.70;;;2.80;;
60867;SDS011;46702;48.370;10.794;2022-07-06T09:21:09;2.50;;;2.30;;
60867;SDS011;46702;48.370;10.794;2022-07-06T09:23:35;2.42;;;2.22;;
60867;SDS011;46702;48.370;10.794;2022-07-06T09:26:03;2.57;;;2.37;;
60867;SDS011;46702;48.370;10.794;2022-07-06T09:31:08;2.10;;;2.00;;
60867;SDS011;46702;48.370;10.794;2022-07-06T09:33:34;2.25;;;2.05;;
60867;SDS011;46702;48.370;10.794;2022-07-06T09:36:00;3.53;;;2.20;;
60867;SDS011;46702;48.370;10.794;2022-07-06T09:38:27;8.73;;;2.60;;
60867;SDS011;46702;48.370;10.794;2022-07-06T09:40:53;2.60;;;2.35;;
60867;SDS011;46702;48.370;10.794;2022-07-06T09:43:19;2.25;;;2.05;;
60867;SDS011;46702;48.370;10.794;2022-07-06T09:45:56;1.83;;;1.73;;
60867;SDS011;46702;48.370;10.794;2022-07-06T09:48:26;4.60;;;2.45;;
60867;SDS011;46702;48.370;10.794;2022-07-06T09:50:59;2.30;;;2.20;;
60867;SDS011;46702;48.370;10.794;2022-07-06T09:53:28;2.72;;;2.17;;
60867;SDS011;46702;48.370;10.794;2022-07-06T09:55:55;2.38;;;2.17;;
60867;SDS011;46702;48.370;10.794;2022-07-06T09:58:23;2.30;;;2.10;;
60867;SDS011;46702;48.370;10.794;2022-07-06T10:00:49;2.85;;;2.28;;
60867;SDS011;46702;48.370;10.794;2022-07-06T10:03:16;3.85;;;2.50;;
60867;SDS011;46702;48.370;10.794;2022-07-06T10:05:43;4.18;;;2.33;;
60867;SDS011;46702;48.370;10.794;2022-07-06T10:08:15;3.50;;;2.30;;
60867;SDS011;46702;48.370;10.794;2022-07-06T10:10:42;3.97;;;2.50;;
60867;SDS011;46702;48.370;10.794;2022-07-06T10:13:09;4.57;;;2.22;;
60867;SDS011;46702;48.370;10.794;2022-07-06T10:15:37;2.17;;;2.08;;
60867;SDS011;46702;48.370;10.794;2022-07-06T10:18:04;3.45;;;2.15;;
60867;SDS011;46702;48.370;10.794;2022-07-06T10:20:32;2.17;;;1.98;;
60867;SDS011;46702;48.370;10.794;2022-07-06T10:23:02;2.00;;;1.90;;
60867;SDS011;46702;48.370;10.794;2022-07-06T10:25:29;4.38;;;2.03;;
60867;SDS011;46702;48.370;10.794;2022-07-06T10:27:55;4.28;;;3.08;;
60867;SDS011;46702;48.370;10.794;2022-07-06T10:30:21;2.92;;;2.30;;
60867;SDS011;46702;48.370;10.794;2022-07-06T10:35:15;2.90;;;2.65;;
60867;SDS011;46702;48.370;10.794;2022-07-06T10:37:45;2.40;;;2.20;;
60867;SDS011;46702;48.370;10.794;2022-07-06T10:40:31;2.17;;;2.00;;
60867;SDS011;46702;48.370;10.794;2022-07-06T10:43:16;3.22;;;2.20;;
60867;SDS011;46702;48.370;10.794;2022-07-06T10:50:40;3.67;;;2.13;;
60867;SDS011;46702;48.370;10.794;2022-07-06T10:53:12;3.40;;;2.10;;
60867;SDS011;46702;48.370;10.794;2022-07-06T10:55:39;3.25;;;2.15;;
60867;SDS011;46702;48.370;10.794;2022-07-06T10:58:08;2.83;;;1.85;;
60867;SDS011;46702;48.370;10.794;2022-07-06T11:00:51;2.20;;;1.90;;
60867;SDS011;46702;48.370;10.794;2022-07-06T11:06:01;3.05;;;1.98;;
60867;SDS011;46702;48.370;10.794;2022-07-06T11:17:17;2.20;;;1.70;;
60867;SDS011;46702;48.370;10.794;2022-07-06T11:19:18;2.58;;;2.10;;
60867;SDS011;46702;48.370;10.794;2022-07-06T11:21:52;2.15;;;1.95;;
60867;SDS011;46702;48.370;10.794;2022-07-06T11:24:28;2.53;;;2.15;;
60867;SDS011;46702;48.370;10.794;2022-07-06T11:26:55;4.65;;;1.77;;
60867;SDS011;46702;48.370;10.794;2022-07-06T11:29:22;1.90;;;1.80;;
60867;SDS011;46702;48.370;10.794;2022-07-06T11:31:50;2.05;;;1.95;;
60867;SDS011;46702;48.370;10.794;2022-07-06T11:34:24;4.93;;;1.85;;
60867;SDS011;46702;48.370;10.794;2022-07-06T11:37:33;2.17;;;2.08;;
60867;SDS011;46702;48.370;10.794;2022-07-06T11:39:41;2.13;;;2.03;;
60867;SDS011;46702;48.370;10.794;2022-07-06T11:42:08;2.00;;;1.90;;
60867;SDS011;46702;48.370;10.794;2022-07-06T11:44:36;2.35;;;1.90;;
60867;SDS011;46702;48.370;10.794;2022-07-06T11:47:03;2.10;;;1.90;;
60867;SDS011;46702;48.370;10.794;2022-07-06T11:49:30;2.15;;;1.90;;
60867;SDS011;46702;48.370;10.794;2022-07-06T11:51:56;2.10;;;2.00;;
60867;SDS011;46702;48.370;10.794;2022-07-06T11:54:23;2.65;;;2.10;;
60867;SDS011;46702;48.370;10.794;2022-07-06T11:59:22;2.50;;;1.98;;
60867;SDS011;46702;48.370;10.794;2022-07-06T12:02:03;2.20;;;2.00;;
60867;SDS011;46702;48.370;10.794;2022-07-06T12:04:29;2.22;;;2.13;;
60867;SDS011;46702;48.370;10.794;2022-07-06T12:07:03;2.03;;;1.92;;
60867;SDS011;46702;48.370;10.794;2022-07-06T12:09:35;5.28;;;2.35;;
60867;SDS011;46702;48.370;10.794;2022-07-06T12:12:01;2.08;;;1.90;;
60867;SDS011;46702;48.370;10.794;2022-07-06T12:14:29;2.38;;;2.05;;
60867;SDS011;46702;48.370;10.794;2022-07-06T12:16:55;2.28;;;2.10;;
60867;SDS011;46702;48.370;10.794;2022-07-06T12:19:22;2.63;;;2.10;;
60867;SDS011;46702;48.370;10.794;2022-07-06T12:21:48;2.03;;;1.83;;
60867;SDS011;46702;48.370;10.794;2022-07-06T12:24:22;1.90;;;1.80;;
60867;SDS011;46702;48.370;10.794;2022-07-06T12:26:59;2.13;;;1.92;;
60867;SDS011;46702;48.370;10.794;2022-07-06T12:29:42;2.10;;;1.88;;
60867;SDS011;46702;48.370;10.794;2022-07-06T12:32:13;3.95;;;2.10;;
60867;SDS011;46702;48.370;10.794;2022-07-06T12:34:43;3.58;;;1.63;;
60867;SDS011;46702;48.370;10.794;2022-07-06T12:37:09;2.17;;;1.50;;
60867;SDS011;46702;48.370;10.794;2022-07-06T12:39:43;1.70;;;1.60;;
60867;SDS011;46702;48.370;10.794;2022-07-06T12:42:12;3.20;;;1.50;;
60867;SDS011;46702;48.370;10.794;2022-07-06T12:44:43;2.22;;;2.08;;
60867;SDS011;46702;48.370;10.794;2022-07-06T12:47:11;2.70;;;1.60;;
60867;SDS011;46702;48.370;10.794;2022-07-06T12:49:37;1.73;;;1.63;;
60867;SDS011;46702;48.370;10.794;2022-07-06T12:59:45;2.63;;;1.40;;
60867;SDS011;46702;48.370;10.794;2022-07-06T13:02:19;1.63;;;1.27;;
60867;SDS011;46702;48.370;10.794;2022-07-06T13:04:56;1.85;;;1.50;;
60867;SDS011;46702;48.370;10.794;2022-07-06T13:07:31;1.60;;;1.50;;
60867;SDS011;46702;48.370;10.794;2022-07-06T13:10:00;1.88;;;1.75;;
60867;SDS011;46702;48.370;10.794;2022-07-06T13:12:29;4.10;;;1.70;;
60867;SDS011;46702;48.370;10.794;2022-07-06T13:14:55;1.65;;;1.55;;
60867;SDS011;46702;48.370;10.794;2022-07-06T13:17:21;1.75;;;1.65;;
60867;SDS011;46702;48.370;10.794;2022-07-06T13:19:47;2.70;;;1.80;;
60867;SDS011;46702;48.370;10.794;2022-07-06T13:22:12;1.60;;;1.50;;
60867;SDS011;46702;48.370;10.794;2022-07-06T13:24:38;2.65;;;1.70;;
60867;SDS011;46702;48.370;10.794;2022-07-06T13:27:04;4.18;;;1.98;;
60867;SDS011;46702;48.370;10.794;2022-07-06T13:29:30;2.00;;;1.90;;
60867;SDS011;46702;48.370;10.794;2022-07-06T13:31:56;3.85;;;1.80;;
60867;SDS011;46702;48.370;10.794;2022-07-06T13:34:21;2.08;;;1.88;;
60867;SDS011;46702;48.370;10.794;2022-07-06T13:36:48;1.80;;;1.67;;
60867;SDS011;46702;48.370;10.794;2022-07-06T13:39:14;3.53;;;1.75;;
60867;SDS011;46702;48.370;10.794;2022-07-06T13:41:40;2.25;;;1.67;;
60867;SDS011;46702;48.370;10.794;2022-07-06T13:44:05;1.73;;;1.50;;
60867;SDS011;46702;48.370;10.794;2022-07-06T13:46:32;2.33;;;1.90;;
60867;SDS011;46702;48.370;10.794;2022-07-06T13:48:58;4.78;;;1.98;;
60867;SDS011;46702;48.370;10.794;2022-07-06T13:51:24;1.80;;;1.70;;
60867;SDS011;46702;48.370;10.794;2022-07-06T13:56:17;3.92;;;1.67;;
60867;SDS011;46702;48.370;10.794;2022-07-06T13:58:43;2.28;;;1.98;;
60867;SDS011;46702;48.370;10.794;2022-07-06T14:01:09;1.60;;;1.50;;
60867;SDS011;46702;48.370;10.794;2022-07-06T14:03:34;2.10;;;1.88;;
60867;SDS011;46702;48.370;10.794;2022-07-06T14:06:02;2.00;;;1.80;;
60867;SDS011;46702;48.370;10.794;2022-07-06T14:08:28;3.60;;;1.85;;
60867;SDS011;46702;48.370;10.794;2022-07-06T14:10:54;4.68;;;1.80;;
60867;SDS011;46702;48.370;10.794;2022-07-06T14:13:21;2.40;;;1.73;;
60867;SDS011;46702;48.370;10.794;2022-07-06T14:15:47;2.00;;;1.60;;
60867;SDS011;46702;48.370;10.794;2022-07-06T14:18:13;1.60;;;1.50;;
60867;SDS011;46702;48.370;10.794;2022-07-06T14:20:39;1.70;;;1.60;;
60867;SDS011;46702;48.370;10.794;2022-07-06T14:23:06;2.33;;;1.80;;
60867;SDS011;46702;48.370;10.794;2022-07-06T14:25:32;3.53;;;1.90;;
60867;SDS011;46702;48.370;10.794;2022-07-06T14:27:58;1.95;;;1.77;;
60867;SDS011;46702;48.370;10.794;2022-07-06T14:30:24;3.60;;;1.70;;
60867;SDS011;46702;48.370;10.794;2022-07-06T14:32:50;4.10;;;1.83;;
60867;SDS011;46702;48.370;10.794;2022-07-06T14:35:16;2.03;;;1.92;;
60867;SDS011;46702;48.370;10.794;2022-07-06T14:37:41;2.28;;;2.00;;
60867;SDS011;46702;48.370;10.794;2022-07-06T14:40:07;2.95;;;2.15;;
60867;SDS011;46702;48.370;10.794;2022-07-06T14:42:33;3.38;;;2.00;;
60867;SDS011;46702;48.370;10.794;2022-07-06T14:44:59;2.08;;;1.98;;
60867;SDS011;46702;48.370;10.794;2022-07-06T14:47:24;2.28;;;1.95;;
60867;SDS011;46702;48.370;10.794;2022-07-06T14:49:50;2.63;;;1.90;;
60867;SDS011;46702;48.370;10.794;2022-07-06T14:52:17;2.10;;;2.00;;
60867;SDS011;46702;48.370;10.794;2022-07-06T14:54:43;1.77;;;1.67;;
60867;SDS011;46702;48.370;10.794;2022-07-06T14:57:08;2.10;;;1.90;;
60867;SDS011;46702;48.370;10.794;2022-07-06T14:59:34;2.85;;;2.08;;
60867;SDS011;46702;48.370;10.794;2022-07-06T15:02:00;2.20;;;1.85;;
60867;SDS011;46702;48.370;10.794;2022-07-06T15:04:26;2.47;;;1.80;;
60867;SDS011;46702;48.370;10.794;2022-07-06T15:06:51;1.75;;;1.65;;